Time;durP1;ratioP1;P1;durP2;ratioP2;P2;SDS_P1;SDS_P2;PMS_P1;PMS_P2;Temp;Humidity;BMP_temperature;BMP_pressure;BME280_temperature;BME280_humidity;BME280_pressure;Samples;Min_cycle;Max_cycle;Signal;HPM_P1;HPM_P2
2023/02/14 00:02:08;;;;;;;4.25;2.15;;;8.80;83.70;;;;;;5027390;28;20026;-67
2023/02/14 00:04:37;;;;;;;3.38;1.85;;;8.80;83.70;;;;;;5027792;28;20017;-68
2023/02/14 00:07:09;;;;;;;3.70;2.03;;;8.80;83.60;;;;;;5031351;28;20032;-68
2023/02/14 00:09:34;;;;;;;;;;;8.70;83.70;;;;;;5028819;28;20476;-67
2023/02/14 00:12:00;;;;;;;7.07;2.40;;;8.70;84.30;;;;;;5031814;28;19913;-67
2023/02/14 00:17:10;;;;;;;3.28;2.03;;;8.60;83.90;;;;;;5031150;28;20037;-68
2023/02/14 00:19:36;;;;;;;3.70;1.90;;;8.60;83.90;;;;;;5031994;28;20392;-67
2023/02/14 00:22:02;;;;;;;3.03;1.98;;;8.60;83.90;;;;;;5031362;28;20025;-67
2023/02/14 00:24:28;;;;;;;3.67;2.30;;;8.60;83.90;;;;;;5030678;28;20045;-68
2023/02/14 00:26:53;;;;;;;3.72;1.88;;;8.60;83.90;;;;;;5030163;28;20053;-68
2023/02/14 00:29:23;;;;;;;5.53;2.30;;;8.50;83.70;;;;;;5029654;28;20403;-68
2023/02/14 00:31:49;;;;;;;4.07;2.38;;;8.50;83.80;;;;;;5029910;28;20132;-67
2023/02/14 00:34:16;;;;;;;4.65;2.10;;;8.40;84.60;;;;;;5027782;28;20479;-67
2023/02/14 00:36:42;;;;;;;4.80;2.80;;;8.40;84.00;;;;;;5031076;28;20033;-67
2023/02/14 00:39:10;;;;;;;3.70;1.92;;;8.40;84.10;;;;;;5030121;28;20366;-67
2023/02/14 00:41:35;;;;;;;4.50;2.10;;;8.40;84.10;;;;;;5028797;28;20018;-67
2023/02/14 00:44:02;;;;;;;5.00;2.70;;;8.40;83.90;;;;;;5031190;28;20084;-67
2023/02/14 00:46:28;;;;;;;6.82;2.92;;;8.30;84.00;;;;;;5031809;28;20037;-68
2023/02/14 00:48:54;;;;;;;5.60;2.75;;;8.30;84.00;;;;;;5031344;28;20036;-68
2023/02/14 00:51:20;;;;;;;4.72;2.35;;;8.30;84.00;;;;;;5031467;28;20052;-67
2023/02/14 00:53:47;;;;;;;3.25;1.85;;;8.30;84.00;;;;;;5031404;28;20480;-67
2023/02/14 00:56:14;;;;;;;5.55;2.38;;;8.30;84.00;;;;;;5031329;28;20053;-68
2023/02/14 00:58:40;;;;;;;4.75;2.03;;;8.20;84.00;;;;;;5027386;28;20448;-67
2023/02/14 01:01:07;;;;;;;5.22;2.20;;;8.30;84.10;;;;;;5030625;28;20380;-67
2023/02/14 01:03:32;;;;;;;4.30;2.20;;;8.30;84.10;;;;;;5030668;28;20769;-67
2023/02/14 01:05:58;;;;;;;5.32;2.25;;;8.20;84.00;;;;;;5031267;28;20022;-67
2023/02/14 01:08:24;;;;;;;4.30;2.17;;;8.20;84.00;;;;;;5030858;28;20037;-67
2023/02/14 01:10:50;;;;;;;4.80;2.40;;;8.20;83.90;;;;;;5031156;28;20392;-68
2023/02/14 01:13:16;;;;;;;4.07;2.35;;;8.20;83.90;;;;;;5030745;28;20029;-67
2023/02/14 01:15:44;;;;;;;5.90;3.05;;;8.20;83.90;;;;;;5031500;28;20029;-67
2023/02/14 01:18:10;;;;;;;4.60;2.42;;;8.20;83.90;;;;;;5027691;28;20052;-67
2023/02/14 01:20:36;;;;;;;6.05;2.70;;;8.20;83.90;;;;;;5031204;28;20028;-68
2023/02/14 01:23:02;;;;;;;4.38;2.20;;;8.20;83.90;;;;;;5028639;28;20029;-67
2023/02/14 01:25:28;;;;;;;5.07;2.60;;;8.10;83.80;;;;;;5029504;28;20044;-67
2023/02/14 01:27:53;;;;;;;4.55;2.35;;;8.10;83.80;;;;;;5028617;28;20025;-67
2023/02/14 01:30:19;;;;;;;4.78;2.20;;;8.10;83.90;;;;;;5030665;28;20631;-67
2023/02/14 01:32:45;;;;;;;3.25;2.10;;;8.10;83.80;;;;;;5031365;28;20033;-66
2023/02/14 01:35:10;;;;;;;4.03;2.13;;;8.10;83.90;;;;;;5024464;28;20029;-67
2023/02/14 01:37:36;;;;;;;4.47;2.20;;;8.10;83.90;;;;;;5029028;28;20033;-66
2023/02/14 01:40:04;;;;;;;5.00;2.53;;;8.00;83.90;;;;;;5029669;28;20496;-67
2023/02/14 01:42:31;;;;;;;4.50;2.80;;;8.00;83.90;;;;;;5028268;28;20100;-67
2023/02/14 01:44:59;;;;;;;4.88;2.70;;;8.00;83.90;;;;;;5030026;28;20013;-66
2023/02/14 01:47:27;;;;;;;5.75;2.58;;;8.00;84.00;;;;;;5028617;28;20447;-67
2023/02/14 01:49:58;;;;;;;8.23;3.78;;;8.00;83.90;;;;;;5027811;28;20034;-67
2023/02/14 01:52:31;;;;;;;5.60;3.15;;;7.90;84.00;;;;;;5026697;28;20075;-68
2023/02/14 01:55:01;;;;;;;5.05;2.72;;;7.90;84.00;;;;;;5024808;28;20064;-68
2023/02/14 01:57:46;;;;;;;5.25;2.67;;;7.90;84.00;;;;;;5021071;28;20064;-68
2023/02/14 02:02:58;;;;;;;4.78;2.53;;;7.90;84.00;;;;;;5028981;28;20045;-69
2023/02/14 02:05:25;;;;;;;4.75;2.35;;;7.90;84.00;;;;;;5029751;28;20029;-68
2023/02/14 02:07:52;;;;;;;4.60;2.45;;;7.80;83.90;;;;;;5029489;28;20499;-68
2023/02/14 02:10:18;;;;;;;3.90;2.08;;;7.80;84.00;;;;;;5020950;28;20423;-68
2023/02/14 02:12:44;;;;;;;4.57;2.35;;;7.80;84.00;;;;;;5023968;28;20037;-68
2023/02/14 02:15:09;;;;;;;4.60;2.30;;;7.80;84.00;;;;;;5029168;28;20495;-69
2023/02/14 02:18:01;;;;;;;4.10;1.95;;;7.80;84.10;;;;;;5028788;28;20550;-68
2023/02/14 02:21:06;;;;;;;3.40;2.15;;;7.80;84.10;;;;;;5018250;28;20691;-67
2023/02/14 02:24:08;;;;;;;4.90;2.20;;;7.70;84.10;;;;;;5027906;28;20113;-68
2023/02/14 02:26:36;;;;;;;3.13;1.80;;;7.70;84.10;;;;;;5042159;28;20022;-68
2023/02/14 02:29:19;;;;;;;3.53;1.92;;;7.70;84.20;;;;;;5026843;28;20033;-68
2023/02/14 02:32:04;;;;;;;;;;;7.70;84.10;;;;;;5028901;28;20024;-68
2023/02/14 02:34:57;;;;;;;4.07;2.15;;;7.70;84.10;;;;;;5027440;28;20372;-68
2023/02/14 02:37:59;;;;;;;3.97;2.13;;;7.70;84.10;;;;;;5028047;28;20480;-68
2023/02/14 02:40:48;;;;;;;4.20;2.35;;;7.70;84.10;;;;;;5029616;28;20373;-68
2023/02/14 02:43:27;;;;;;;5.68;2.30;;;7.60;84.10;;;;;;5027031;28;20049;-68
2023/02/14 02:55:15;;;;;;;5.45;2.20;;;7.50;84.20;;;;;;5026292;28;20511;-68
2023/02/14 02:57:42;;;;;;;3.28;1.90;;;7.50;84.40;;;;;;5025888;28;20040;-68
2023/02/14 03:00:10;;;;;;;3.38;2.13;;;7.50;84.40;;;;;;5028099;28;20615;-69
2023/02/14 03:05:27;;;;;;;4.45;2.00;;;7.40;84.50;;;;;;5028470;28;20527;-68
2023/02/14 03:07:53;;;;;;;3.58;2.00;;;7.50;84.50;;;;;;5028385;28;20025;-68
2023/02/14 03:10:24;;;;;;;4.22;1.90;;;7.50;84.50;;;;;;5027850;28;20030;-68
2023/02/14 03:13:09;;;;;;;3.83;2.03;;;7.50;84.40;;;;;;5028173;28;20052;-68
2023/02/14 03:15:52;;;;;;;3.72;2.22;;;7.50;84.50;;;;;;5028099;28;20025;-67
2023/02/14 03:21:07;;;;;;;5.38;2.47;;;7.40;84.30;;;;;;5028361;28;20036;-68
2023/02/14 03:23:39;;;;;;;4.00;2.20;;;7.40;84.30;;;;;;5028550;28;20021;-68
2023/02/14 03:26:31;;;;;;;4.22;2.13;;;7.40;84.30;;;;;;5028595;28;20022;-67
2023/02/14 03:29:17;;;;;;;4.20;1.95;;;7.40;84.20;;;;;;5023006;28;20471;-68
2023/02/14 03:32:12;;;;;;;4.57;2.20;;;7.40;84.20;;;;;;5029026;28;20022;-68
2023/02/14 03:34:59;;;;;;;3.15;1.85;;;7.30;84.30;;;;;;5028117;28;20037;-68
2023/02/14 03:37:57;;;;;;;4.07;1.90;;;7.30;84.30;;;;;;5028068;28;20026;-68
2023/02/14 03:40:32;;;;;;;2.55;1.83;;;7.30;84.30;;;;;;5028253;28;20038;-68
2023/02/14 03:43:05;;;;;;;4.72;2.33;;;7.30;84.30;;;;;;5031671;28;20433;-68
2023/02/14 03:45:50;;;;;;;2.80;1.70;;;7.30;84.20;;;;;;5024481;28;20034;-68
2023/02/14 03:48:18;;;;;;;3.17;1.88;;;7.30;84.10;;;;;;5030765;28;20033;-67
2023/02/14 03:50:46;;;;;;;2.75;1.80;;;7.20;84.00;;;;;;5030434;28;20091;-68
2023/02/14 03:53:17;;;;;;;3.88;2.13;;;7.20;84.10;;;;;;5029995;28;20033;-68
2023/02/14 03:56:00;;;;;;;3.25;1.85;;;7.20;84.20;;;;;;5030621;28;20033;-67
2023/02/14 03:58:30;;;;;;;5.00;2.13;;;7.10;84.30;;;;;;5028705;28;20484;-68
2023/02/14 04:01:01;;;;;;;4.88;2.17;;;7.10;84.40;;;;;;5031040;28;20164;-68
2023/02/14 04:03:28;;;;;;;4.28;2.22;;;7.10;84.40;;;;;;5023787;28;20111;-68
2023/02/14 04:05:54;;;;;;;3.25;2.05;;;7.10;84.40;;;;;;5030069;28;20103;-68
2023/02/14 04:08:27;;;;;;;4.80;2.30;;;7.10;84.40;;;;;;5030416;28;20049;-68
2023/02/14 04:10:57;;;;;;;3.80;2.10;;;7.00;84.30;;;;;;5030307;28;20037;-68
2023/02/14 04:13:23;;;;;;;5.25;2.58;;;7.00;84.30;;;;;;5028274;28;20034;-68
2023/02/14 04:15:48;;;;;;;3.85;2.60;;;7.00;84.30;;;;;;5030907;28;20033;-68
2023/02/14 04:20:58;;;;;;;3.65;2.20;;;6.90;84.30;;;;;;5031336;28;20412;-68
2023/02/14 04:23:24;;;;;;;3.75;2.10;;;6.90;84.10;;;;;;5030087;28;20030;-68
2023/02/14 04:25:49;;;;;;;3.65;2.10;;;6.90;84.10;;;;;;5029463;28;20476;-68
2023/02/14 04:28:15;;;;;;;3.80;2.00;;;7.00;84.00;;;;;;5029045;28;20037;-68
2023/02/14 04:30:40;;;;;;;5.35;2.00;;;6.90;83.90;;;;;;5030543;28;20034;-68
2023/02/14 04:33:09;;;;;;;4.57;2.03;;;6.90;84.00;;;;;;5024298;28;20032;-68
2023/02/14 04:35:35;;;;;;;2.78;1.90;;;6.90;84.10;;;;;;5030059;28;20037;-68
2023/02/14 04:38:02;;;;;;;5.15;2.40;;;6.90;84.10;;;;;;5029993;28;20041;-68
2023/02/14 04:40:28;;;;;;;6.47;2.92;;;6.90;84.10;;;;;;5030317;28;20496;-68
2023/02/14 04:42:54;;;;;;;3.92;1.98;;;6.80;84.10;;;;;;5030529;28;20104;-68
2023/02/14 04:45:20;;;;;;;4.43;2.50;;;6.80;84.10;;;;;;5030017;28;20030;-68
2023/02/14 04:47:45;;;;;;;3.28;2.17;;;6.80;84.20;;;;;;5030530;28;20026;-68
2023/02/14 04:50:12;;;;;;;5.35;2.53;;;6.80;84.30;;;;;;5028583;28;20040;-68
2023/02/14 04:52:37;;;;;;;5.60;2.58;;;6.80;84.30;;;;;;5028978;28;20032;-68
2023/02/14 04:55:04;;;;;;;7.85;3.63;;;6.80;84.30;;;;;;5030189;28;20025;-68
2023/02/14 04:57:30;;;;;;;5.68;2.92;;;6.70;84.30;;;;;;5028252;28;20029;-68
2023/02/14 04:59:55;;;;;;;5.85;2.67;;;6.70;84.30;;;;;;5030312;28;20555;-67
2023/02/14 05:02:21;;;;;;;6.25;3.08;;;6.70;84.30;;;;;;5029370;28;20436;-68
2023/02/14 05:04:47;;;;;;;5.25;2.63;;;6.70;84.20;;;;;;5029766;28;20029;-68
2023/02/14 05:07:13;;;;;;;4.32;2.72;;;6.70;84.20;;;;;;5028568;28;20083;-67
2023/02/14 05:09:38;;;;;;;6.45;3.03;;;6.60;84.30;;;;;;5030006;28;20029;-67
2023/02/14 05:12:04;;;;;;;5.55;2.60;;;6.60;84.30;;;;;;5031216;28;20033;-68
2023/02/14 05:14:29;;;;;;;5.78;2.70;;;6.60;84.30;;;;;;5030195;28;20033;-68
2023/02/14 05:16:55;;;;;;;3.97;2.13;;;6.60;84.20;;;;;;5029905;28;20022;-68
2023/02/14 05:19:21;;;;;;;5.47;2.35;;;6.60;84.30;;;;;;5029085;28;20029;-68
2023/02/14 05:21:46;;;;;;;4.72;2.20;;;6.60;84.20;;;;;;5030244;28;20508;-68
2023/02/14 05:24:12;;;;;;;5.18;2.40;;;6.60;84.40;;;;;;5029991;28;20033;-68
2023/02/14 05:26:38;;;;;;;3.67;2.33;;;6.50;84.40;;;;;;5030005;28;20021;-68
2023/02/14 05:29:03;;;;;;;4.43;2.40;;;6.50;84.30;;;;;;5030465;28;20033;-68
2023/02/14 05:31:29;;;;;;;5.43;2.90;;;6.50;84.40;;;;;;5029504;28;20032;-68
2023/02/14 05:33:55;;;;;;;4.68;2.72;;;6.50;84.30;;;;;;5028986;28;20052;-69
2023/02/14 05:36:20;;;;;;;6.53;3.13;;;6.40;84.40;;;;;;5029994;28;20777;-68
2023/02/14 05:38:46;;;;;;;5.50;3.10;;;6.40;84.40;;;;;;5029382;28;20072;-68
2023/02/14 05:41:11;;;;;;;5.57;2.90;;;6.40;84.50;;;;;;5029222;28;20064;-69
2023/02/14 05:43:37;;;;;;;6.78;3.22;;;6.40;84.60;;;;;;5029291;28;20031;-68
2023/02/14 05:46:03;;;;;;;5.28;2.85;;;6.30;84.50;;;;;;5030100;28;20502;-68
2023/02/14 05:48:28;;;;;;;5.30;2.70;;;6.40;84.60;;;;;;5029472;28;20033;-68
2023/02/14 05:50:54;;;;;;;6.03;3.30;;;6.30;84.50;;;;;;5029253;28;20561;-68
2023/02/14 05:53:19;;;;;;;5.15;2.80;;;6.30;84.50;;;;;;5029386;28;20564;-68
2023/02/14 05:55:46;;;;;;;7.13;3.45;;;6.30;84.50;;;;;;5028734;28;20391;-67
2023/02/14 05:58:11;;;;;;;5.53;2.80;;;6.20;84.50;;;;;;5028678;28;20108;-68
2023/02/14 06:00:38;;;;;;;5.22;2.55;;;6.20;84.50;;;;;;5028183;28;20120;-68
2023/02/14 06:03:03;;;;;;;5.07;2.85;;;6.20;84.50;;;;;;5027520;28;20029;-68
2023/02/14 06:05:29;;;;;;;5.40;2.30;;;6.30;84.60;;;;;;5025701;28;20029;-67
2023/02/14 06:07:54;;;;;;;5.25;2.95;;;6.20;84.80;;;;;;5023628;28;20057;-67
2023/02/14 06:10:22;;;;;;;6.05;3.25;;;6.30;84.50;;;;;;5028566;28;20045;-68
2023/02/14 06:12:49;;;;;;;8.27;4.43;;;6.10;84.40;;;;;;5029462;28;20025;-68
2023/02/14 06:15:15;;;;;;;10.10;4.07;;;6.10;84.60;;;;;;5027108;28;20123;-68
2023/02/14 06:17:41;;;;;;;5.95;3.38;;;6.10;84.70;;;;;;5028826;28;20032;-68
2023/02/14 06:20:10;;;;;;;5.25;2.88;;;6.10;85.40;;;;;;5029531;28;20025;-67
2023/02/14 06:22:37;;;;;;;5.80;2.88;;;6.10;84.70;;;;;;5029211;28;20430;-68
2023/02/14 06:25:04;;;;;;;7.25;3.65;;;6.00;84.70;;;;;;5029145;28;20025;-68
2023/02/14 06:27:30;;;;;;;5.68;3.28;;;6.00;84.70;;;;;;5026860;28;20760;-69
2023/02/14 06:29:55;;;;;;;7.28;3.38;;;6.00;84.70;;;;;;5032289;28;20037;-69
2023/02/14 06:32:21;;;;;;;4.82;2.83;;;6.00;84.70;;;;;;5029137;28;20488;-69
2023/02/14 06:34:47;;;;;;;6.43;3.30;;;6.00;84.70;;;;;;5029784;28;20062;-69
2023/02/14 06:37:12;;;;;;;4.80;2.45;;;6.00;84.70;;;;;;5031840;28;20115;-69
2023/02/14 06:39:38;;;;;;;4.15;2.10;;;6.00;84.70;;;;;;5029073;28;20017;-69
2023/02/14 06:42:04;;;;;;;3.85;2.20;;;6.00;84.60;;;;;;5028503;28;20030;-69
2023/02/14 06:44:29;;;;;;;3.90;2.25;;;6.00;84.60;;;;;;5029335;28;20026;-69
2023/02/14 06:46:55;;;;;;;3.38;2.22;;;6.00;84.50;;;;;;5027469;28;20057;-69
2023/02/14 06:49:20;;;;;;;3.85;2.13;;;6.00;84.40;;;;;;5029703;28;20034;-69
2023/02/14 06:51:46;;;;;;;2.92;1.95;;;6.00;84.40;;;;;;5028409;28;20030;-69
2023/02/14 06:54:11;;;;;;;4.88;2.30;;;6.00;84.40;;;;;;5034242;28;20026;-69
2023/02/14 06:56:37;;;;;;;5.55;2.10;;;6.00;85.00;;;;;;5027301;28;20025;-69
2023/02/14 06:59:03;;;;;;;5.60;2.13;;;6.00;84.40;;;;;;5027064;28;20021;-68
2023/02/14 07:01:28;;;;;;;3.80;2.13;;;6.00;84.40;;;;;;5028954;28;20541;-69
2023/02/14 07:03:54;;;;;;;3.42;1.90;;;6.00;84.50;;;;;;5028832;28;20026;-69
2023/02/14 07:06:19;;;;;;;3.80;2.03;;;6.00;84.50;;;;;;5029119;28;20087;-67
2023/02/14 07:08:45;;;;;;;5.07;2.03;;;6.00;84.50;;;;;;5029218;28;20030;-67
2023/02/14 07:11:10;;;;;;;5.05;2.10;;;6.00;84.40;;;;;;5026029;28;20040;-69
2023/02/14 07:13:36;;;;;;;4.10;2.25;;;5.90;84.40;;;;;;5029545;28;20029;-67
2023/02/14 07:16:02;;;;;;;8.85;3.13;;;5.90;84.40;;;;;;5030465;28;20025;-67
2023/02/14 07:18:27;;;;;;;6.07;3.33;;;5.90;84.50;;;;;;5035495;28;20036;-67
2023/02/14 07:20:53;;;;;;;7.10;2.70;;;5.90;84.40;;;;;;5032502;28;20029;-68
2023/02/14 07:23:18;;;;;;;6.82;2.55;;;5.90;84.40;;;;;;5030308;28;20472;-68
2023/02/14 07:25:44;;;;;;;5.57;2.17;;;6.00;84.40;;;;;;5027678;28;20032;-68
2023/02/14 07:28:10;;;;;;;5.53;2.72;;;6.00;84.20;;;;;;5033148;28;20105;-68
2023/02/14 07:30:36;;;;;;;5.20;2.65;;;6.00;84.20;;;;;;5032534;28;20774;-68
2023/02/14 07:33:01;;;;;;;4.18;2.10;;;6.00;84.10;;;;;;5032237;28;20029;-68
2023/02/14 07:35:27;;;;;;;5.00;2.40;;;6.00;84.00;;;;;;5031847;28;20112;-68
2023/02/14 07:37:52;;;;;;;5.75;2.95;;;6.10;83.90;;;;;;5032621;28;20538;-68
2023/02/14 07:40:18;;;;;;;5.18;2.45;;;6.10;83.80;;;;;;5030717;28;20152;-68
2023/02/14 07:42:51;;;;;;;4.43;2.35;;;6.10;83.80;;;;;;5028099;28;20032;-68
2023/02/14 07:45:16;;;;;;;4.63;2.15;;;6.10;83.80;;;;;;5028024;28;20029;-68
2023/02/14 07:47:42;;;;;;;4.25;2.15;;;6.10;83.70;;;;;;5032308;28;20025;-68
2023/02/14 07:50:08;;;;;;;3.10;2.00;;;6.20;83.80;;;;;;5031813;28;20037;-68
2023/02/14 07:52:33;;;;;;;3.33;1.92;;;6.20;83.70;;;;;;5031497;28;20033;-68
2023/02/14 07:54:59;;;;;;;4.22;2.47;;;6.20;83.60;;;;;;5032394;28;20029;-68
2023/02/14 07:57:24;;;;;;;4.68;2.40;;;6.30;83.70;;;;;;5030454;28;20017;-68
2023/02/14 07:59:50;;;;;;;4.85;2.60;;;6.40;83.60;;;;;;5032670;28;20021;-68
2023/02/14 08:02:15;;;;;;;4.82;2.78;;;6.40;83.50;;;;;;5027730;28;20412;-68
2023/02/14 08:04:41;;;;;;;5.85;2.55;;;6.40;83.40;;;;;;5037753;28;20450;-68
2023/02/14 08:07:06;;;;;;;7.60;4.10;;;6.50;83.30;;;;;;5032839;28;20036;-68
2023/02/14 08:09:32;;;;;;;7.85;3.55;;;6.50;83.20;;;;;;5031509;28;20057;-68
2023/02/14 08:14:43;;;;;;;7.95;3.70;;;6.50;83.20;;;;;;5026893;28;20405;-68
2023/02/14 08:17:09;;;;;;;4.85;2.80;;;6.60;83.30;;;;;;5029304;28;20041;-68
2023/02/14 08:19:36;;;;;;;4.75;2.60;;;6.60;83.30;;;;;;5031085;28;20532;-68
2023/02/14 08:22:02;;;;;;;5.30;2.88;;;6.60;83.40;;;;;;5026967;28;20067;-68
2023/02/14 08:24:28;;;;;;;6.82;3.60;;;6.60;83.50;;;;;;5028112;28;20028;-68
2023/02/14 08:26:54;;;;;;;7.82;3.95;;;6.60;83.60;;;;;;5031095;28;20025;-68
2023/02/14 08:29:20;;;;;;;7.78;3.88;;;6.60;83.70;;;;;;5029028;28;20018;-68
2023/02/14 08:31:46;;;;;;;7.85;3.70;;;6.70;83.90;;;;;;5026057;28;20033;-68
2023/02/14 08:34:13;;;;;;;6.50;3.35;;;6.70;84.10;;;;;;5030159;28;20261;-68
2023/02/14 08:36:39;;;;;;;8.25;4.03;;;6.70;84.70;;;;;;5031221;28;20021;-68
2023/02/14 08:39:05;;;;;;;7.80;3.40;;;6.70;84.10;;;;;;5028228;28;20030;-68
2023/02/14 08:41:31;;;;;;;7.13;4.30;;;6.80;84.10;;;;;;5030277;28;20033;-68
2023/02/14 08:43:57;;;;;;;5.88;3.25;;;6.90;83.90;;;;;;5030670;28;20060;-68
2023/02/14 08:46:22;;;;;;;6.55;3.15;;;7.00;83.70;;;;;;5030945;28;20057;-68
2023/02/14 08:48:49;;;;;;;5.05;2.60;;;7.00;83.50;;;;;;5030190;28;20084;-68
2023/02/14 08:51:15;;;;;;;6.72;3.65;;;7.00;83.50;;;;;;5031245;28;20017;-68
2023/02/14 08:53:41;;;;;;;10.93;5.35;;;7.00;83.60;;;;;;5030352;28;20460;-68
2023/02/14 08:56:12;;;;;;;11.60;5.65;;;7.00;83.60;;;;;;5030451;28;20084;-68
2023/02/14 08:58:38;;;;;;;10.82;4.32;;;7.00;83.70;;;;;;5029051;28;20097;-68
2023/02/14 09:01:12;;;;;;;5.88;3.40;;;7.00;83.70;;;;;;5030249;28;20041;-68
2023/02/14 09:03:38;;;;;;;6.72;3.17;;;7.10;83.60;;;;;;5029630;28;20033;-68
2023/02/14 09:06:09;;;;;;;8.90;4.50;;;7.20;83.50;;;;;;5030393;28;20534;-68
2023/02/14 09:08:38;;;;;;;12.35;5.80;;;7.20;83.30;;;;;;5034390;28;20036;-68
2023/02/14 09:11:13;;;;;;;15.45;6.47;;;7.30;83.30;;;;;;5031586;28;20060;-68
2023/02/14 09:13:39;;;;;;;12.32;5.57;;;7.30;83.10;;;;;;5030149;28;20396;-68
2023/02/14 09:16:06;;;;;;;9.05;4.28;;;7.30;83.00;;;;;;5030281;28;20041;-68
2023/02/14 09:18:33;;;;;;;9.07;3.85;;;7.40;82.90;;;;;;5027112;28;20032;-68
2023/02/14 09:20:58;;;;;;;10.02;5.53;;;7.50;82.90;;;;;;5028246;28;20526;-68
2023/02/14 09:23:24;;;;;;;8.00;4.20;;;7.40;83.00;;;;;;5028362;28;20025;-68
2023/02/14 09:25:50;;;;;;;14.98;7.88;;;7.50;83.30;;;;;;5030396;28;20590;-68
2023/02/14 09:28:15;;;;;;;16.13;7.93;;;7.50;83.50;;;;;;5028372;28;20063;-68
2023/02/14 09:30:41;;;;;;;12.15;5.72;;;7.50;83.50;;;;;;5029323;28;20025;-68
2023/02/14 09:33:06;;;;;;;9.15;4.50;;;7.60;83.30;;;;;;5028808;28;20025;-68
2023/02/14 09:35:32;;;;;;;8.00;3.72;;;7.70;83.30;;;;;;5029272;28;20140;-68
2023/02/14 09:37:57;;;;;;;6.93;3.58;;;7.80;83.10;;;;;;5028646;28;20155;-68
2023/02/14 09:40:24;;;;;;;7.78;3.58;;;7.90;82.80;;;;;;5027913;28;20022;-68
2023/02/14 09:43:00;;;;;;;9.10;3.95;;;8.00;82.70;;;;;;5026240;28;20033;-68
2023/02/14 09:45:27;;;;;;;12.32;5.82;;;8.00;82.60;;;;;;5025229;28;20025;-68
2023/02/14 09:48:00;;;;;;;7.18;3.83;;;8.00;82.40;;;;;;5027276;28;20025;-68
2023/02/14 09:50:43;;;;;;;8.95;4.65;;;8.10;82.50;;;;;;5026657;28;20033;-68
2023/02/14 09:53:24;;;;;;;10.95;4.53;;;8.10;82.30;;;;;;5027232;28;20079;-68
2023/02/14 09:56:06;;;;;;;6.57;2.88;;;8.20;82.40;;;;;;5026978;28;20021;-68
2023/02/14 09:59:17;;;;;;;8.98;4.15;;;8.30;82.20;;;;;;5025467;28;20025;-68
2023/02/14 10:01:55;;;;;;;6.40;3.25;;;8.30;82.10;;;;;;5025291;28;20060;-68
2023/02/14 10:04:43;;;;;;;9.93;5.57;;;8.40;82.10;;;;;;5025526;28;20091;-68
2023/02/14 10:07:43;;;;;;;15.13;5.97;;;8.40;82.10;;;;;;5020278;28;20567;-68
2023/02/14 10:10:12;;;;;;;12.70;5.88;;;8.50;82.00;;;;;;5023468;28;20105;-68
2023/02/14 10:12:59;;;;;;;11.50;5.18;;;8.60;81.90;;;;;;5027566;28;20480;-68
2023/02/14 10:15:37;;;;;;;9.57;5.00;;;8.70;81.80;;;;;;5026486;28;20017;-68
2023/02/14 10:18:25;;;;;;;10.48;5.30;;;8.70;81.70;;;;;;5025518;28;20565;-68
2023/02/14 10:20:59;;;;;;;14.73;7.55;;;8.80;81.50;;;;;;5024358;28;20017;-68
2023/02/14 10:23:36;;;;;;;9.38;4.95;;;9.00;81.40;;;;;;5027166;28;20412;-68
2023/02/14 10:26:08;;;;;;;14.82;6.28;;;9.00;81.20;;;;;;5027904;28;20049;-68
2023/02/14 10:28:35;;;;;;;9.98;4.63;;;9.00;81.10;;;;;;5026059;28;20036;-68
2023/02/14 10:31:13;;;;;;;14.38;7.07;;;9.00;81.00;;;;;;5023023;28;20037;-68
2023/02/14 10:33:44;;;;;;;11.25;5.80;;;9.10;81.00;;;;;;5022560;28;20084;-68
2023/02/14 10:36:29;;;;;;;10.00;4.72;;;9.20;80.80;;;;;;5024663;28;20022;-68
2023/02/14 10:39:20;;;;;;;9.65;4.55;;;9.20;80.60;;;;;;5023818;28;20026;-67
2023/02/14 10:41:55;;;;;;;13.98;7.25;;;9.30;80.70;;;;;;5024060;28;20026;-67
2023/02/14 10:44:40;;;;;;;10.13;4.78;;;9.40;80.60;;;;;;5025963;28;20514;-66
2023/02/14 10:47:35;;;;;;;7.82;4.32;;;9.40;80.50;;;;;;5026588;28;20047;-67
2023/02/14 10:50:22;;;;;;;8.90;4.70;;;9.50;80.30;;;;;;5023220;28;20022;-67
2023/02/14 10:53:03;;;;;;;15.13;7.20;;;9.60;80.20;;;;;;5022800;28;20025;-67
2023/02/14 10:55:40;;;;;;;13.13;6.88;;;9.60;80.10;;;;;;5027634;28;20056;-66
2023/02/14 10:58:12;;;;;;;10.45;5.05;;;9.80;80.00;;;;;;5026641;28;20021;-66
2023/02/14 11:00:45;;;;;;;13.75;6.10;;;9.80;79.70;;;;;;5025459;28;20022;-66
2023/02/14 11:03:12;;;;;;;12.73;6.57;;;9.80;79.70;;;;;;5025065;28;20060;-66
2023/02/14 11:05:42;;;;;;;16.52;7.85;;;9.80;79.40;;;;;;5027800;28;20029;-66
2023/02/14 11:08:27;;;;;;;14.93;7.38;;;9.90;79.70;;;;;;5027303;28;20517;-67
2023/02/14 11:10:56;;;;;;;12.45;6.03;;;10.00;79.50;;;;;;5025540;28;20044;-66
2023/02/14 11:13:34;;;;;;;13.95;6.95;;;10.10;79.40;;;;;;5025137;28;20369;-67
2023/02/14 11:16:07;;;;;;;15.98;7.40;;;10.20;79.10;;;;;;5011416;28;20033;-67
2023/02/14 11:18:34;;;;;;;13.05;5.60;;;10.20;78.90;;;;;;5023025;28;20036;-67
2023/02/14 11:21:28;;;;;;;10.55;5.43;;;10.40;78.90;;;;;;5026179;28;20084;-67
2023/02/14 11:23:53;;;;;;;12.32;5.85;;;10.30;78.20;;;;;;5026178;28;20514;-67
2023/02/14 11:26:27;;;;;;;8.23;4.32;;;10.20;78.40;;;;;;5026009;28;20032;-67
2023/02/14 11:29:09;;;;;;;17.85;7.40;;;10.30;78.60;;;;;;5025433;28;20048;-68
2023/02/14 11:31:36;;;;;;;13.18;6.63;;;10.40;78.50;;;;;;5026273;28;20026;-67
2023/02/14 11:34:17;;;;;;;11.10;5.63;;;10.50;78.00;;;;;;5026236;28;20029;-66
2023/02/14 11:36:43;;;;;;;16.25;7.78;;;10.60;78.20;;;;;;5024224;28;20032;-67
2023/02/14 11:39:26;;;;;;;11.32;4.88;;;10.70;77.80;;;;;;5024466;28;20033;-67
2023/02/14 11:41:55;;;;;;;7.65;3.92;;;10.80;77.70;;;;;;5025193;28;20041;-66
2023/02/14 11:44:26;;;;;;;9.13;3.83;;;10.80;77.70;;;;;;5023935;28;20685;-67
2023/02/14 11:46:54;;;;;;;7.63;4.35;;;10.80;77.70;;;;;;5022614;28;20026;-66
2023/02/14 11:49:28;;;;;;;11.70;5.43;;;11.00;77.80;;;;;;5025978;28;20095;-66
2023/02/14 11:51:57;;;;;;;10.65;5.22;;;11.00;78.40;;;;;;5024566;28;20029;-67
2023/02/14 11:54:35;;;;;;;11.18;5.55;;;11.20;77.50;;;;;;5025652;28;20377;-67
2023/02/14 11:57:15;;;;;;;9.52;4.50;;;11.20;77.40;;;;;;5024356;28;20534;-66
2023/02/14 11:59:47;;;;;;;8.02;4.03;;;11.30;77.40;;;;;;5021501;28;20026;-66
2023/02/14 12:02:31;;;;;;;6.22;3.20;;;11.40;77.30;;;;;;5025360;28;20071;-66
2023/02/14 12:05:04;;;;;;;7.40;3.30;;;11.40;77.20;;;;;;5025486;28;20021;-66
2023/02/14 12:07:36;;;;;;;11.00;5.85;;;11.60;77.50;;;;;;5028205;28;20025;-66
2023/02/14 12:10:14;;;;;;;10.02;4.88;;;12.90;76.30;;;;;;5028309;28;20037;-66
2023/02/14 12:13:07;;;;;;;9.07;4.20;;;14.90;70.60;;;;;;5029410;28;20496;-67
2023/02/14 12:15:39;;;;;;;8.75;4.45;;;16.20;66.10;;;;;;5028180;28;20052;-66
2023/02/14 12:18:39;;;;;;;9.75;4.55;;;16.90;63.70;;;;;;5027236;28;20018;-66
2023/02/14 12:21:23;;;;;;;7.38;3.35;;;17.50;61.90;;;;;;5028554;28;20496;-66
2023/02/14 12:24:15;;;;;;;6.90;3.58;;;17.80;60.90;;;;;;5028479;28;20410;-66
2023/02/14 12:27:05;;;;;;;8.77;4.72;;;17.90;60.60;;;;;;5027715;28;20488;-67
2023/02/14 12:29:42;;;;;;;8.48;3.75;;;15.80;62.60;;;;;;5026170;28;20488;-66
2023/02/14 12:32:26;;;;;;;9.13;4.80;;;14.40;67.20;;;;;;5028542;28;20588;-66
2023/02/14 12:35:16;;;;;;;9.80;4.88;;;13.40;69.60;;;;;;5029854;28;20282;-67
2023/02/14 12:38:02;;;;;;;7.68;4.38;;;12.90;71.10;;;;;;5026904;28;20037;-66
2023/02/14 12:40:32;;;;;;;8.48;4.40;;;12.50;73.30;;;;;;5028704;28;20112;-66
2023/02/14 12:43:19;;;;;;;8.43;4.00;;;12.60;74.00;;;;;;5027832;28;20032;-66
2023/02/14 12:46:12;;;;;;;5.82;3.58;;;12.60;74.40;;;;;;5024215;28;20033;-66
2023/02/14 12:49:16;;;;;;;;;;;12.80;74.80;;;;;;5026768;28;20060;-66
2023/02/14 12:52:10;;;;;;;10.80;5.30;;;13.00;73.70;;;;;;5005155;28;20411;-66
2023/02/14 12:54:41;;;;;;;8.55;4.05;;;13.00;72.40;;;;;;5020270;28;20033;-66
2023/02/14 12:57:44;;;;;;;9.88;4.80;;;12.90;73.30;;;;;;5021889;28;20033;-67
2023/02/14 13:00:34;;;;;;;8.13;3.85;;;13.10;73.70;;;;;;5024462;28;20476;-67
2023/02/14 13:03:32;;;;;;;6.03;3.20;;;13.30;73.50;;;;;;5023406;28;20069;-66
2023/02/14 13:06:21;;;;;;;7.82;3.67;;;13.30;73.20;;;;;;5028490;28;20083;-66
2023/02/14 13:09:09;;;;;;;7.43;3.58;;;13.40;73.60;;;;;;5029964;28;20454;-66
2023/02/14 13:11:57;;;;;;;9.15;4.70;;;13.40;73.00;;;;;;5026841;28;20025;-67
2023/02/14 13:14:35;;;;;;;7.18;3.72;;;13.80;73.10;;;;;;5026782;28;20402;-67
2023/02/14 13:17:02;;;;;;;9.38;4.03;;;14.10;72.60;;;;;;5026298;28;20029;-68
2023/02/14 13:19:27;;;;;;;13.80;3.80;;;14.40;72.30;;;;;;5031094;28;20021;-67
2023/02/14 13:21:55;;;;;;;4.38;2.40;;;14.60;72.20;;;;;;5026411;28;20588;-67
2023/02/14 13:24:27;;;;;;;9.40;4.75;;;14.90;71.60;;;;;;5027330;28;20029;-68
2023/02/14 13:26:58;;;;;;;9.25;4.40;;;14.70;70.00;;;;;;5030755;28;20021;-67
2023/02/14 13:29:28;;;;;;;6.77;3.57;;;14.70;70.70;;;;;;5030470;28;20026;-67
2023/02/14 13:32:00;;;;;;;9.50;4.95;;;14.90;70.40;;;;;;5030873;28;20306;-67
2023/02/14 13:34:33;;;;;;;7.77;3.63;;;15.00;70.80;;;;;;5027911;28;20058;-67
2023/02/14 13:37:06;;;;;;;8.07;4.38;;;15.00;70.00;;;;;;5026880;28;20060;-66
2023/02/14 13:39:45;;;;;;;9.30;4.82;;;14.90;70.10;;;;;;5028971;28;20094;-66
2023/02/14 13:42:11;;;;;;;9.05;4.20;;;14.90;70.50;;;;;;5025212;28;20377;-66
2023/02/14 13:44:40;;;;;;;8.02;4.57;;;15.00;70.10;;;;;;5024895;28;20036;-66